createdAt,value
2019-03-31T00:02:44.728Z,98.10
2019-03-31T00:05:31.859Z,98.90
2019-03-31T00:08:19.144Z,99.90
2019-03-31T00:11:06.980Z,99.90
2019-03-31T00:13:54.009Z,99.90
2019-03-31T00:16:41.101Z,99.90
2019-03-31T00:19:28.304Z,99.90
2019-03-31T00:22:14.939Z,99.90
2019-03-31T00:25:02.001Z,99.90
2019-03-31T00:27:49.035Z,99.90
2019-03-31T00:30:36.368Z,99.90
2019-03-31T00:33:23.672Z,99.90
2019-03-31T00:36:10.851Z,99.90
2019-03-31T00:38:57.986Z,99.90
2019-03-31T00:41:44.929Z,99.90
2019-03-31T00:44:31.975Z,99.90
2019-03-31T00:47:19.297Z,99.90
2019-03-31T00:50:07.120Z,99.90
2019-03-31T00:52:54.417Z,99.90
2019-03-31T00:55:41.247Z,99.90
2019-03-31T00:58:28.548Z,99.90
2019-03-31T01:01:20.774Z,99.90
2019-03-31T01:04:09.850Z,99.90
2019-03-31T01:06:57.809Z,99.90
2019-03-31T01:09:45.123Z,99.90
2019-03-31T01:12:32.265Z,99.90
2019-03-31T01:15:23.164Z,99.90
2019-03-31T01:18:10.459Z,99.90
2019-03-31T01:20:57.501Z,99.90
2019-03-31T01:23:44.568Z,99.90
2019-03-31T01:26:32.310Z,99.90
2019-03-31T01:29:19.480Z,99.90
2019-03-31T01:32:06.675Z,99.90
2019-03-31T01:34:53.709Z,99.90
2019-03-31T01:37:40.976Z,99.90
2019-03-31T01:40:28.212Z,99.90
2019-03-31T01:43:15.375Z,99.90
2019-03-31T01:46:02.260Z,99.90
2019-03-31T01:48:49.699Z,99.90
2019-03-31T01:51:36.701Z,99.90
2019-03-31T01:54:23.912Z,99.90
2019-03-31T01:57:11.071Z,99.90
2019-03-31T01:59:58.495Z,99.90
2019-03-31T02:02:45.601Z,99.90
2019-03-31T02:05:32.298Z,99.90
2019-03-31T02:08:19.733Z,99.90
2019-03-31T02:11:06.681Z,99.90
2019-03-31T02:13:53.823Z,99.90
2019-03-31T02:16:41.163Z,99.90
2019-03-31T02:19:28.493Z,99.90
2019-03-31T02:22:15.558Z,99.90
2019-03-31T02:25:02.700Z,99.90
2019-03-31T02:27:49.783Z,99.90
2019-03-31T02:30:37.004Z,99.90
2019-03-31T02:33:24.075Z,99.90
2019-03-31T02:36:11.070Z,99.90
2019-03-31T02:38:57.961Z,99.90
2019-03-31T02:41:45.435Z,99.90
2019-03-31T02:44:32.373Z,99.90
2019-03-31T02:47:19.526Z,99.90
2019-03-31T02:50:07.967Z,99.90
2019-03-31T02:52:55.053Z,99.90
2019-03-31T02:55:44.195Z,99.90
2019-03-31T02:58:31.754Z,99.90
2019-03-31T03:01:20.273Z,99.90
2019-03-31T03:04:09.402Z,99.90
2019-03-31T03:06:57.426Z,99.90
2019-03-31T03:09:46.239Z,99.90
2019-03-31T03:12:35.083Z,99.90
2019-03-31T03:15:28.567Z,99.90
2019-03-31T03:18:15.558Z,99.90
2019-03-31T03:21:02.590Z,99.90
2019-03-31T03:23:50.617Z,99.90
2019-03-31T03:26:37.638Z,99.90
2019-03-31T03:29:24.851Z,99.90
2019-03-31T03:32:12.514Z,99.90
2019-03-31T03:34:59.556Z,99.90
2019-03-31T03:37:46.845Z,99.90
2019-03-31T03:40:34.217Z,99.90
2019-03-31T03:43:21.344Z,99.90
2019-03-31T03:46:08.401Z,99.90
2019-03-31T03:48:55.132Z,99.90
2019-03-31T03:51:42.703Z,99.90
2019-03-31T03:54:29.708Z,99.90
2019-03-31T03:57:16.611Z,99.90
2019-03-31T04:00:06.019Z,99.90
2019-03-31T04:02:52.978Z,99.90
2019-03-31T04:05:40.121Z,99.90
2019-03-31T04:08:26.975Z,99.90
2019-03-31T04:11:20.861Z,99.90
2019-03-31T04:14:05.730Z,99.90
2019-03-31T04:16:52.978Z,99.90
2019-03-31T04:19:40.169Z,99.90
2019-03-31T04:22:27.459Z,99.90
2019-03-31T04:25:14.642Z,99.90
2019-03-31T04:28:01.699Z,99.90
2019-03-31T04:30:48.722Z,99.90
2019-03-31T04:33:50.472Z,99.90
2019-03-31T04:36:24.979Z,99.90
2019-03-31T04:39:11.989Z,99.90
2019-03-31T04:41:59.271Z,99.90
2019-03-31T04:44:46.246Z,99.90
2019-03-31T04:47:33.516Z,99.90
2019-03-31T04:50:20.335Z,99.90
2019-03-31T04:53:07.704Z,99.90
2019-03-31T04:55:54.767Z,99.90
2019-03-31T04:58:42.371Z,99.90
2019-03-31T05:01:29.762Z,99.90
2019-03-31T05:04:16.983Z,99.90
2019-03-31T05:07:03.938Z,99.90
2019-03-31T05:09:50.890Z,99.90
2019-03-31T05:12:37.646Z,99.90
2019-03-31T05:15:24.471Z,99.90
2019-03-31T05:18:11.759Z,99.90
2019-03-31T05:20:59.090Z,99.90
2019-03-31T05:23:46.161Z,99.90
2019-03-31T05:26:33.323Z,99.90
2019-03-31T05:29:20.267Z,99.90
2019-03-31T05:32:07.529Z,99.90
2019-03-31T05:34:54.792Z,99.90
2019-03-31T05:37:50.704Z,99.90
2019-03-31T05:40:30.974Z,99.90
2019-03-31T05:43:18.016Z,99.90
2019-03-31T05:46:05.457Z,99.90
2019-03-31T05:48:52.513Z,99.90
2019-03-31T05:51:39.538Z,99.90
2019-03-31T05:54:26.754Z,99.90
2019-03-31T05:57:14.065Z,99.90
2019-03-31T06:00:01.394Z,99.90
2019-03-31T06:02:48.784Z,99.90
2019-03-31T06:05:36.575Z,99.90
2019-03-31T06:08:24.156Z,99.90
2019-03-31T06:11:11.438Z,99.90
2019-03-31T06:13:58.542Z,99.90
2019-03-31T06:16:45.911Z,99.90
2019-03-31T06:19:33.132Z,99.90
2019-03-31T06:22:20.301Z,99.90
2019-03-31T06:25:07.862Z,99.90
2019-03-31T06:27:55.026Z,99.90
2019-03-31T06:30:41.992Z,99.90
2019-03-31T06:33:29.008Z,99.90
2019-03-31T06:36:16.493Z,99.90
2019-03-31T06:39:05.853Z,99.90
2019-03-31T06:41:53.051Z,99.90
2019-03-31T06:44:40.122Z,99.90
2019-03-31T06:47:27.426Z,99.90
2019-03-31T06:50:14.441Z,99.90
2019-03-31T06:53:01.456Z,99.90
2019-03-31T06:55:48.547Z,99.90
2019-03-31T06:58:35.523Z,99.90
2019-03-31T07:01:22.887Z,99.90
2019-03-31T07:04:09.933Z,99.90
2019-03-31T07:06:57.233Z,99.90
2019-03-31T07:09:44.429Z,99.90
2019-03-31T07:12:31.419Z,99.90
2019-03-31T07:15:18.211Z,99.90
2019-03-31T07:18:05.555Z,99.90
2019-03-31T07:20:52.261Z,99.90
2019-03-31T07:23:39.225Z,99.90
2019-03-31T07:26:26.422Z,99.90
2019-03-31T07:29:13.496Z,99.90
2019-03-31T07:32:00.608Z,99.90
2019-03-31T07:34:47.784Z,99.90
2019-03-31T07:37:46.625Z,99.90
2019-03-31T07:40:23.432Z,99.90
2019-03-31T07:43:10.957Z,99.90
2019-03-31T07:45:58.032Z,99.90
2019-03-31T07:48:45.785Z,99.90
2019-03-31T07:51:32.829Z,99.90
2019-03-31T07:54:19.825Z,99.90
2019-03-31T07:57:07.306Z,99.90
2019-03-31T07:59:56.546Z,99.90
2019-03-31T08:02:43.728Z,99.90
2019-03-31T08:05:33.322Z,99.90
2019-03-31T08:08:19.461Z,99.90
2019-03-31T08:11:06.690Z,99.90
2019-03-31T08:13:55.378Z,99.90
2019-03-31T08:16:42.800Z,99.90
2019-03-31T08:19:30.070Z,99.90
2019-03-31T08:22:17.223Z,99.90
2019-03-31T08:25:05.865Z,99.90
2019-03-31T08:27:53.187Z,99.90
2019-03-31T08:30:40.523Z,99.90
2019-03-31T08:33:27.863Z,99.90
2019-03-31T08:36:15.084Z,99.90
2019-03-31T08:39:04.558Z,99.90
2019-03-31T08:41:51.859Z,99.90
2019-03-31T08:44:39.871Z,99.90
2019-03-31T08:47:27.670Z,99.90
2019-03-31T08:50:16.087Z,99.90
2019-03-31T08:53:03.833Z,98.10
2019-03-31T08:55:51.626Z,93.90
2019-03-31T08:58:39.167Z,92.00
2019-03-31T09:01:26.857Z,90.30
2019-03-31T09:04:14.791Z,79.80
2019-03-31T09:07:02.525Z,80.00
2019-03-31T09:09:50.135Z,74.80
2019-03-31T09:12:38.724Z,72.80
2019-03-31T09:15:26.360Z,69.20
2019-03-31T09:18:14.277Z,70.60
2019-03-31T09:21:02.587Z,70.30
2019-03-31T09:23:50.585Z,63.40
2019-03-31T09:26:38.591Z,63.80
2019-03-31T09:29:26.397Z,61.60
2019-03-31T09:32:14.313Z,60.80
2019-03-31T09:35:01.859Z,62.20
2019-03-31T09:37:49.463Z,61.50
2019-03-31T09:40:36.957Z,57.00
2019-03-31T09:43:24.982Z,57.50
2019-03-31T09:46:12.740Z,57.30
2019-03-31T09:49:00.487Z,56.60
2019-03-31T09:51:48.147Z,55.40
2019-03-31T09:54:36.098Z,56.10
2019-03-31T09:57:23.476Z,55.60
2019-03-31T10:00:14.033Z,55.50
2019-03-31T10:03:01.998Z,54.80
2019-03-31T10:05:50.237Z,54.20
2019-03-31T10:08:37.770Z,53.90
2019-03-31T10:11:25.521Z,53.50
2019-03-31T10:14:13.414Z,50.80
2019-03-31T10:17:00.968Z,49.30
2019-03-31T10:19:48.311Z,49.20
2019-03-31T10:22:35.853Z,47.60
2019-03-31T10:25:24.013Z,47.70
2019-03-31T10:28:11.188Z,45.90
2019-03-31T10:30:59.100Z,46.50
2019-03-31T10:33:47.317Z,46.20
2019-03-31T10:36:44.420Z,44.30
2019-03-31T10:39:23.153Z,43.90
2019-03-31T10:42:10.995Z,43.50
2019-03-31T10:44:59.189Z,41.60
2019-03-31T10:47:46.469Z,41.60
2019-03-31T10:50:34.376Z,41.10
2019-03-31T10:53:21.983Z,40.60
2019-03-31T10:56:09.652Z,39.20
2019-03-31T10:58:57.061Z,36.80
2019-03-31T11:01:44.595Z,37.30
2019-03-31T11:04:32.076Z,37.90
2019-03-31T11:07:19.625Z,35.00
2019-03-31T11:10:08.819Z,34.60
2019-03-31T11:12:56.609Z,35.00
2019-03-31T11:15:44.179Z,37.00
2019-03-31T11:18:31.515Z,34.80
2019-03-31T11:21:23.349Z,35.20
2019-03-31T11:24:10.819Z,34.70
2019-03-31T11:26:58.492Z,34.00
2019-03-31T11:29:45.607Z,34.30
2019-03-31T11:32:32.945Z,35.30
2019-03-31T11:35:20.026Z,34.60
2019-03-31T11:38:07.574Z,35.20
2019-03-31T11:40:55.236Z,35.80
2019-03-31T11:43:42.573Z,36.50
2019-03-31T11:46:29.830Z,34.80
2019-03-31T11:49:17.342Z,34.80
2019-03-31T11:52:04.916Z,34.70
2019-03-31T11:54:52.429Z,34.00
2019-03-31T11:57:39.949Z,34.60
2019-03-31T12:00:30.576Z,34.10
2019-03-31T12:03:17.665Z,33.10
2019-03-31T12:06:05.202Z,33.20
2019-03-31T12:08:52.638Z,33.60
2019-03-31T12:11:39.962Z,33.60
2019-03-31T12:14:27.184Z,32.00
2019-03-31T12:17:14.260Z,31.70
2019-03-31T12:20:02.044Z,31.50
2019-03-31T12:22:49.437Z,31.70
2019-03-31T12:25:36.749Z,32.40
2019-03-31T12:28:24.355Z,31.70
2019-03-31T12:31:11.684Z,30.40
2019-03-31T12:33:59.199Z,31.50
2019-03-31T12:36:46.203Z,31.70
2019-03-31T12:39:34.317Z,31.90
2019-03-31T12:42:22.074Z,30.40
2019-03-31T12:45:09.687Z,31.40
2019-03-31T12:47:59.651Z,30.80
2019-03-31T12:50:46.378Z,29.80
2019-03-31T12:53:34.055Z,29.80
2019-03-31T12:56:21.653Z,30.60
2019-03-31T12:59:08.941Z,31.50
2019-03-31T13:01:56.334Z,29.60
2019-03-31T13:04:43.906Z,29.70
2019-03-31T13:07:31.092Z,29.10
2019-03-31T13:10:18.421Z,30.00
2019-03-31T13:13:05.843Z,29.20
2019-03-31T13:15:52.833Z,29.70
2019-03-31T13:18:40.435Z,29.20
2019-03-31T13:21:27.852Z,29.40
2019-03-31T13:24:15.400Z,29.50
2019-03-31T13:27:02.643Z,29.20
2019-03-31T13:29:50.299Z,29.00
2019-03-31T13:32:37.812Z,29.50
2019-03-31T13:35:25.137Z,29.30
2019-03-31T13:38:12.571Z,29.60
2019-03-31T13:41:00.216Z,29.70
2019-03-31T13:43:47.453Z,29.00
2019-03-31T13:46:34.854Z,28.80
2019-03-31T13:49:22.252Z,29.20
2019-03-31T13:52:09.535Z,29.00
2019-03-31T13:54:57.111Z,29.80
2019-03-31T13:57:45.640Z,29.80
2019-03-31T14:00:38.309Z,30.10
2019-03-31T14:03:25.830Z,30.00
2019-03-31T14:06:13.400Z,30.10
2019-03-31T14:09:00.698Z,30.40
2019-03-31T14:11:48.637Z,30.30
2019-03-31T14:14:35.982Z,30.00
2019-03-31T14:17:24.556Z,29.40
2019-03-31T14:20:12.490Z,29.00
2019-03-31T14:23:00.082Z,29.10
2019-03-31T14:25:47.713Z,29.00
2019-03-31T14:28:35.500Z,28.80
2019-03-31T14:31:23.150Z,29.70
2019-03-31T14:34:10.843Z,29.80
2019-03-31T14:36:58.439Z,29.60
2019-03-31T14:39:45.982Z,29.60
2019-03-31T14:42:33.218Z,29.30
2019-03-31T14:45:33.980Z,29.50
2019-03-31T14:48:21.183Z,29.70
2019-03-31T14:51:08.550Z,29.30
2019-03-31T14:53:55.970Z,29.50
2019-03-31T14:56:43.514Z,29.60
2019-03-31T14:59:31.179Z,30.60
2019-03-31T15:02:18.584Z,30.30
2019-03-31T15:05:06.446Z,29.60
2019-03-31T15:07:53.900Z,30.20
2019-03-31T15:10:41.536Z,30.10
2019-03-31T15:13:28.845Z,30.50
2019-03-31T15:16:15.987Z,30.70
2019-03-31T15:19:03.481Z,30.60
2019-03-31T15:21:50.852Z,30.60
2019-03-31T15:24:38.686Z,31.10
2019-03-31T15:27:26.067Z,30.80
2019-03-31T15:30:14.019Z,31.00
2019-03-31T15:33:01.369Z,31.80
2019-03-31T15:35:49.031Z,30.60
2019-03-31T15:38:36.307Z,29.90
2019-03-31T15:41:23.362Z,30.50
2019-03-31T15:44:10.710Z,31.00
2019-03-31T15:46:57.954Z,31.10
2019-03-31T15:49:45.502Z,31.40
2019-03-31T15:52:33.318Z,32.20
2019-03-31T15:55:20.936Z,32.80
2019-03-31T15:58:08.515Z,33.50
2019-03-31T16:00:56.035Z,33.30
2019-03-31T16:03:43.843Z,33.20
2019-03-31T16:06:31.733Z,33.60
2019-03-31T16:09:23.808Z,33.80
2019-03-31T16:12:08.776Z,33.70
2019-03-31T16:14:56.570Z,34.40
2019-03-31T16:17:44.657Z,34.20
2019-03-31T16:20:32.295Z,34.50
2019-03-31T16:23:20.151Z,34.60
2019-03-31T16:26:07.754Z,35.00
2019-03-31T16:28:55.652Z,35.20
2019-03-31T16:31:43.628Z,35.20
2019-03-31T16:34:31.208Z,35.60
2019-03-31T16:37:19.192Z,35.50
2019-03-31T16:40:07.396Z,35.80
2019-03-31T16:42:55.031Z,35.00
2019-03-31T16:45:42.686Z,35.10
2019-03-31T16:48:30.340Z,35.30
2019-03-31T16:51:17.887Z,34.70
2019-03-31T16:54:05.629Z,35.30
2019-03-31T16:56:53.143Z,35.50
2019-03-31T16:59:41.190Z,35.70
2019-03-31T17:02:28.777Z,35.90
2019-03-31T17:05:22.018Z,36.30
2019-03-31T17:08:05.788Z,36.50
2019-03-31T17:10:53.727Z,36.80
2019-03-31T17:13:41.073Z,36.60
2019-03-31T17:16:28.748Z,37.00
2019-03-31T17:19:16.594Z,36.90
2019-03-31T17:22:04.369Z,37.00
2019-03-31T17:24:52.044Z,37.30
2019-03-31T17:27:39.776Z,37.40
2019-03-31T17:30:27.373Z,37.50
2019-03-31T17:33:15.036Z,37.90
2019-03-31T17:36:02.676Z,38.40
2019-03-31T17:38:50.534Z,38.70
2019-03-31T17:41:38.510Z,38.80
2019-03-31T17:44:26.076Z,39.20
2019-03-31T17:47:13.972Z,39.20
2019-03-31T17:50:01.246Z,39.40
2019-03-31T17:52:49.317Z,39.40
2019-03-31T17:55:37.049Z,39.90
2019-03-31T17:58:24.757Z,40.20
2019-03-31T18:01:12.789Z,40.20
2019-03-31T18:04:00.602Z,40.30
2019-03-31T18:06:48.546Z,41.00
2019-03-31T18:09:35.770Z,41.20
2019-03-31T18:12:23.494Z,41.20
2019-03-31T18:15:11.416Z,41.50
2019-03-31T18:17:59.047Z,41.30
2019-03-31T18:20:46.685Z,41.30
2019-03-31T18:23:34.410Z,41.60
2019-03-31T18:26:22.257Z,42.20
2019-03-31T18:29:10.301Z,42.20
2019-03-31T18:31:58.033Z,42.50
2019-03-31T18:34:45.661Z,42.90
2019-03-31T18:37:33.595Z,43.10
2019-03-31T18:40:34.450Z,43.20
2019-03-31T18:43:10.982Z,43.30
2019-03-31T18:45:58.173Z,43.60
2019-03-31T18:48:45.218Z,43.60
2019-03-31T18:51:32.373Z,43.70
2019-03-31T18:54:21.348Z,44.50
2019-03-31T18:57:10.401Z,44.60
2019-03-31T19:00:07.962Z,44.70
2019-03-31T19:03:02.799Z,44.40
2019-03-31T19:05:51.734Z,45.00
2019-03-31T19:08:43.550Z,45.00
2019-03-31T19:11:32.378Z,45.60
2019-03-31T19:14:33.019Z,45.60
2019-03-31T19:17:37.938Z,45.30
2019-03-31T19:20:42.816Z,45.40
2019-03-31T19:23:31.605Z,45.80
2019-03-31T19:26:47.785Z,46.20
2019-03-31T19:29:26.985Z,46.50
2019-03-31T19:32:18.067Z,46.80
2019-03-31T19:35:16.619Z,47.00
2019-03-31T19:38:08.554Z,47.30
2019-03-31T19:41:04.673Z,47.50
2019-03-31T19:44:02.511Z,47.60
2019-03-31T19:46:57.075Z,47.80
2019-03-31T19:49:51.620Z,48.30
2019-03-31T19:52:46.244Z,48.60
2019-03-31T19:55:47.140Z,49.20
2019-03-31T19:58:38.670Z,49.20
2019-03-31T20:01:42.259Z,49.60
2019-03-31T20:04:45.726Z,49.60
2019-03-31T20:07:50.994Z,49.90
2019-03-31T20:10:51.777Z,50.30
2019-03-31T20:13:40.752Z,50.30
2019-03-31T20:16:41.221Z,50.30
2019-03-31T20:19:46.261Z,50.40
2019-03-31T20:22:40.735Z,50.70
2019-03-31T20:25:32.556Z,51.10
2019-03-31T20:28:21.149Z,51.00
2019-03-31T20:31:27.786Z,51.00
2019-03-31T20:34:19.692Z,50.90
2019-03-31T20:37:11.404Z,51.30
2019-03-31T20:40:00.402Z,51.30
2019-03-31T20:42:49.049Z,51.40
2019-03-31T20:45:35.923Z,51.70
2019-03-31T20:48:22.924Z,51.60
2019-03-31T20:51:10.087Z,51.70
2019-03-31T20:53:57.121Z,52.60
2019-03-31T20:56:44.424Z,52.80
2019-03-31T20:59:31.791Z,52.80
2019-03-31T21:02:19.097Z,52.60
2019-03-31T21:05:06.431Z,53.10
2019-03-31T21:07:53.715Z,53.60
2019-03-31T21:10:40.757Z,53.50
2019-03-31T21:13:28.202Z,53.80
2019-03-31T21:16:15.225Z,53.90
2019-03-31T21:19:02.219Z,54.90
2019-03-31T21:21:48.995Z,54.50
2019-03-31T21:24:35.689Z,54.60
2019-03-31T21:27:22.790Z,54.70
2019-03-31T21:30:10.094Z,55.00
2019-03-31T21:32:57.151Z,55.30
2019-03-31T21:35:44.686Z,56.00
2019-03-31T21:38:31.817Z,57.20
2019-03-31T21:41:19.117Z,57.10
2019-03-31T21:44:06.423Z,57.60
2019-03-31T21:46:55.949Z,58.00
2019-03-31T21:49:42.583Z,58.30
2019-03-31T21:52:29.706Z,58.50
2019-03-31T21:55:16.856Z,58.70
2019-03-31T21:58:03.693Z,59.10
2019-03-31T22:00:52.400Z,59.10
2019-03-31T22:03:39.647Z,59.40
2019-03-31T22:06:27.082Z,59.50
2019-03-31T22:09:14.251Z,59.60
2019-03-31T22:12:01.445Z,59.30
2019-03-31T22:14:48.146Z,59.30
2019-03-31T22:17:35.089Z,59.40
2019-03-31T22:20:21.913Z,59.40
2019-03-31T22:23:08.896Z,59.90
2019-03-31T22:25:56.241Z,60.50
2019-03-31T22:28:43.831Z,60.60
2019-03-31T22:31:31.172Z,61.30
2019-03-31T22:34:18.202Z,62.20
2019-03-31T22:37:05.170Z,63.30
2019-03-31T22:39:52.416Z,63.50
2019-03-31T22:42:39.753Z,64.60
2019-03-31T22:45:27.029Z,64.70
2019-03-31T22:48:13.947Z,65.20
2019-03-31T22:51:00.932Z,66.20
2019-03-31T22:53:48.010Z,67.30
2019-03-31T22:56:35.234Z,68.20
2019-03-31T22:59:21.919Z,69.60
2019-03-31T23:02:09.487Z,70.40
2019-03-31T23:04:56.256Z,71.10
2019-03-31T23:07:43.498Z,72.80
2019-03-31T23:10:30.524Z,75.20
2019-03-31T23:13:17.574Z,76.70
2019-03-31T23:16:04.708Z,78.40
2019-03-31T23:18:51.987Z,81.60
2019-03-31T23:21:38.915Z,83.70
2019-03-31T23:24:25.818Z,85.70
2019-03-31T23:27:12.554Z,87.00
2019-03-31T23:29:59.214Z,87.60
2019-03-31T23:32:46.455Z,91.00
2019-03-31T23:35:33.752Z,92.30
2019-03-31T23:38:21.143Z,94.00
2019-03-31T23:41:08.208Z,95.60
2019-03-31T23:43:55.409Z,98.90
2019-03-31T23:46:42.673Z,98.70
2019-03-31T23:49:29.673Z,99.10
2019-03-31T23:52:16.578Z,99.70
2019-03-31T23:55:04.016Z,99.90
2019-03-31T23:57:50.699Z,99.90
